Terminal Aerodrome Forecast
Issued by NWS Denver/Boulder, CO

Home | Current Version | Previous Version | Text Only | Print | Product List | Glossary On
Versions: 1 2 3 4 5 6 7 8 9 10 11 12 13 14 15 16 17 18 19 20 21 22 23 24 25 26 27 28 29 30 31 32 33 34 35 36 37 38 39 40 41 42 43 44 45 46 47 48 49 50
000
FTUS45 KBOU 282111 AAB
TAFDEN
TAF AMD
KDEN 282111Z 2821/2924 13010G15KT P6SM BKN060 BKN110
      TEMPO 2822/2902 VRB15G30KT 5SM TSRA BKN050CB
     FM290200 17014KT P6SM VCTS BKN060CB BKN100
     FM290600 22012KT P6SM SCT070 BKN120
     FM291200 27007KT P6SM SCT050 BKN200
     FM291500 01006KT P6SM SCT040 BKN100
     FM291900 08009KT P6SM VCSH SCT040 BKN070
      TEMPO 2920/2924 VRB20G35KT 5SM +TSRA BKN040CB=

USA.gov is the U.S. government's official web portal to all federal, state and local government web resources and services.